Kirriemuir, United Kingdom
Current Conditions -  °F | °C
As of 6:50 AM on Wednesday 26 Nov 2014 (Local Time) from EGPN Reporting Station
Haze Haze  
Wind Chill: 37°   Ceiling: 400
Heat Index: 37°   Visibility: 0.93mi
Dew Point: 37°   Wind: 1mph
Humidity: 100%   Direction: 300°WNW
Pressure: 30.03"   Gusts: NA
Location:  56.67°N, 3°W
Report Text: EGPN 260650Z 30001KT 1500 BR BKN004 BKN008 03/03 Q1017
Loading
Personal Weather Stations






























Interactive Weather Map New forecast layout! Learn more

10-Day Weather Forecast

Advertisements
Track Severe Weather on mobile